createdAt,value
2019-03-17T00:00:40.789Z,12.77
2019-03-17T00:01:40.779Z,12.77
2019-03-17T00:02:40.773Z,12.77
2019-03-17T00:03:40.758Z,12.74
2019-03-17T00:04:40.752Z,12.79
2019-03-17T00:05:40.750Z,12.70
2019-03-17T00:06:40.741Z,12.73
2019-03-17T00:07:40.731Z,12.69
2019-03-17T00:08:40.719Z,12.85
2019-03-17T00:09:40.715Z,12.67
2019-03-17T00:10:40.710Z,12.80
2019-03-17T00:11:40.705Z,12.81
2019-03-17T00:12:40.698Z,12.71
2019-03-17T00:13:40.693Z,12.71
2019-03-17T00:14:40.681Z,12.70
2019-03-17T00:15:40.667Z,12.71
2019-03-17T00:16:40.660Z,12.77
2019-03-17T00:17:41.977Z,12.84
2019-03-17T00:18:40.646Z,12.70
2019-03-17T00:19:40.647Z,12.81
2019-03-17T00:20:40.635Z,12.77
2019-03-17T00:21:40.625Z,12.81
2019-03-17T00:22:40.618Z,12.69
2019-03-17T00:23:40.613Z,12.70
2019-03-17T00:24:40.607Z,12.71
2019-03-17T00:25:40.597Z,12.69
2019-03-17T00:26:40.587Z,12.74
2019-03-17T00:27:40.578Z,12.77
2019-03-17T00:28:40.567Z,12.74
2019-03-17T00:29:40.562Z,12.74
2019-03-17T00:30:40.556Z,12.79
2019-03-17T00:31:40.551Z,12.80
2019-03-17T00:32:40.542Z,12.76
2019-03-17T00:33:40.537Z,12.73
2019-03-17T00:34:44.396Z,12.69
2019-03-17T00:35:40.518Z,12.69
2019-03-17T00:36:40.510Z,12.70
2019-03-17T00:37:40.508Z,12.69
2019-03-17T00:38:40.501Z,12.77
2019-03-17T00:39:40.488Z,12.67
2019-03-17T00:40:40.480Z,12.69
2019-03-17T00:41:40.468Z,12.66
2019-03-17T00:42:40.463Z,12.76
2019-03-17T00:43:40.459Z,12.67
2019-03-17T00:44:40.456Z,12.63
2019-03-17T00:45:40.444Z,12.62
2019-03-17T00:46:40.437Z,12.70
2019-03-17T00:47:40.424Z,12.67
2019-03-17T00:48:40.414Z,12.67
2019-03-17T00:49:40.411Z,12.67
2019-03-17T00:50:40.408Z,12.71
2019-03-17T00:51:40.500Z,12.76
2019-03-17T00:52:40.396Z,12.66
2019-03-17T00:53:40.381Z,12.70
2019-03-17T00:54:40.373Z,12.59
2019-03-17T00:55:40.430Z,12.67
2019-03-17T00:56:40.360Z,12.66
2019-03-17T00:57:40.353Z,12.76
2019-03-17T00:58:40.345Z,12.69
2019-03-17T00:59:40.331Z,12.69
2019-03-17T01:00:40.323Z,12.69
2019-03-17T01:01:40.316Z,12.74
2019-03-17T01:02:40.313Z,12.67
2019-03-17T01:03:40.306Z,12.67
2019-03-17T01:04:40.302Z,12.62
2019-03-17T01:05:40.293Z,12.67
2019-03-17T01:06:40.285Z,12.54
2019-03-17T01:07:40.273Z,12.56
2019-03-17T01:08:40.265Z,12.63
2019-03-17T01:09:40.262Z,12.61
2019-03-17T01:10:40.254Z,12.49
2019-03-17T01:11:40.249Z,12.66
2019-03-17T01:12:40.234Z,12.63
2019-03-17T01:13:40.226Z,12.56
2019-03-17T01:14:40.221Z,12.58
2019-03-17T01:15:40.217Z,12.58
2019-03-17T01:16:40.205Z,12.59
2019-03-17T01:17:40.208Z,12.55
2019-03-17T01:18:40.193Z,12.54
2019-03-17T01:19:40.182Z,12.56
2019-03-17T01:20:40.173Z,12.58
2019-03-17T01:21:40.166Z,12.52
2019-03-17T01:22:40.160Z,12.48
2019-03-17T01:23:40.155Z,12.54
2019-03-17T01:24:40.144Z,12.55
2019-03-17T01:25:40.131Z,12.59
2019-03-17T01:26:40.126Z,12.48
2019-03-17T01:27:40.123Z,12.54
2019-03-17T01:28:40.119Z,12.55
2019-03-17T01:29:40.112Z,12.52
2019-03-17T01:30:40.101Z,12.59
2019-03-17T01:31:40.091Z,12.55
2019-03-17T01:32:40.082Z,12.51
2019-03-17T01:33:40.074Z,12.54
2019-03-17T01:34:40.081Z,12.52
2019-03-17T01:35:40.063Z,12.56
2019-03-17T01:36:40.055Z,12.56
2019-03-17T01:37:40.048Z,12.51
2019-03-17T01:38:40.039Z,12.54
2019-03-17T01:39:40.025Z,12.54
2019-03-17T01:40:40.016Z,12.49
2019-03-17T01:41:40.029Z,12.52
2019-03-17T01:42:40.007Z,12.48
2019-03-17T01:43:39.996Z,12.48
2019-03-17T01:44:39.985Z,12.40
2019-03-17T01:45:39.981Z,12.36
2019-03-17T01:46:39.975Z,12.31
2019-03-17T01:47:39.970Z,12.34
2019-03-17T01:48:39.963Z,12.38
2019-03-17T01:49:39.958Z,12.38
2019-03-17T01:50:39.947Z,12.44
2019-03-17T01:51:39.935Z,12.41
2019-03-17T01:52:39.926Z,12.44
2019-03-17T01:53:39.915Z,12.38
2019-03-17T01:54:39.910Z,12.49
2019-03-17T01:55:39.909Z,12.31
2019-03-17T01:56:39.899Z,12.37
2019-03-17T01:57:39.883Z,12.41
2019-03-17T01:58:39.879Z,12.48
2019-03-17T01:59:39.874Z,12.41
2019-03-17T02:00:39.869Z,12.51
2019-03-17T02:01:39.859Z,12.49
2019-03-17T02:02:39.853Z,12.49
2019-03-17T02:03:39.842Z,12.49
2019-03-17T02:04:39.836Z,12.40
2019-03-17T02:05:39.824Z,12.48
2019-03-17T02:06:39.817Z,12.43
2019-03-17T02:07:39.814Z,12.41
2019-03-17T02:08:39.806Z,12.40
2019-03-17T02:09:39.796Z,12.49
2019-03-17T02:10:39.788Z,12.40
2019-03-17T02:11:39.777Z,12.49
2019-03-17T02:12:39.767Z,12.41
2019-03-17T02:13:39.766Z,12.40
2019-03-17T02:14:39.760Z,12.41
2019-03-17T02:15:39.745Z,12.37
2019-03-17T02:16:39.735Z,12.40
2019-03-17T02:17:39.732Z,12.38
2019-03-17T02:18:39.723Z,12.40
2019-03-17T02:19:39.721Z,12.36
2019-03-17T02:20:39.711Z,12.40
2019-03-17T02:21:39.703Z,12.44
2019-03-17T02:22:39.701Z,12.44
2019-03-17T02:23:39.684Z,12.38
2019-03-17T02:24:39.676Z,12.30
2019-03-17T02:25:39.667Z,12.40
2019-03-17T02:26:39.657Z,12.38
2019-03-17T02:27:39.656Z,12.40
2019-03-17T02:28:39.649Z,12.34
2019-03-17T02:29:39.636Z,12.38
2019-03-17T02:30:39.632Z,12.36
2019-03-17T02:31:39.627Z,12.34
2019-03-17T02:32:39.627Z,12.33
2019-03-17T02:33:39.612Z,12.31
2019-03-17T02:34:39.630Z,12.30
2019-03-17T02:35:40.138Z,12.30
2019-03-17T02:36:39.585Z,12.33
2019-03-17T02:37:39.578Z,12.30
2019-03-17T02:38:39.567Z,12.33
2019-03-17T02:39:39.574Z,12.31
2019-03-17T02:40:39.555Z,12.33
2019-03-17T02:41:39.549Z,12.26
2019-03-17T02:42:39.541Z,12.33
2019-03-17T02:43:39.535Z,12.33
2019-03-17T02:44:39.517Z,12.30
2019-03-17T02:45:39.515Z,12.31
2019-03-17T02:46:39.509Z,12.30
2019-03-17T02:47:39.497Z,12.26
2019-03-17T02:48:39.516Z,12.34
2019-03-17T02:49:39.480Z,12.29
2019-03-17T02:50:39.476Z,12.26
2019-03-17T02:51:39.471Z,12.25
2019-03-17T02:52:39.463Z,12.23
2019-03-17T02:53:39.457Z,12.23
2019-03-17T02:54:39.447Z,12.23
2019-03-17T02:55:39.437Z,12.22
2019-03-17T02:56:39.431Z,12.22
2019-03-17T02:57:39.416Z,12.26
2019-03-17T02:58:39.421Z,12.19
2019-03-17T02:59:39.406Z,12.25
2019-03-17T03:00:39.398Z,12.21
2019-03-17T03:01:39.386Z,12.23
2019-03-17T03:02:39.376Z,12.21
2019-03-17T03:03:39.376Z,12.19
2019-03-17T03:04:39.365Z,12.23
2019-03-17T03:05:53.844Z,12.19
2019-03-17T03:06:39.354Z,12.23
2019-03-17T03:07:39.347Z,12.25
2019-03-17T03:08:39.335Z,12.25
2019-03-17T03:09:39.323Z,12.26
2019-03-17T03:10:39.317Z,12.15
2019-03-17T03:11:39.314Z,12.25
2019-03-17T03:12:39.307Z,12.22
2019-03-17T03:13:39.294Z,12.25
2019-03-17T03:14:39.286Z,12.25
2019-03-17T03:15:39.274Z,12.19
2019-03-17T03:16:39.269Z,12.15
2019-03-17T03:17:39.271Z,12.12
2019-03-17T03:18:39.257Z,12.11
2019-03-17T03:19:39.243Z,12.13
2019-03-17T03:20:39.240Z,12.13
2019-03-17T03:21:39.230Z,12.11
2019-03-17T03:22:39.221Z,12.15
2019-03-17T03:23:39.225Z,12.11
2019-03-17T03:24:39.212Z,11.96
2019-03-17T03:25:39.198Z,12.11
2019-03-17T03:26:39.192Z,12.12
2019-03-17T03:27:39.183Z,11.96
2019-03-17T03:28:39.172Z,12.00
2019-03-17T03:29:39.173Z,11.98
2019-03-17T03:30:39.165Z,11.97
2019-03-17T03:31:39.167Z,12.05
2019-03-17T03:32:39.157Z,11.97
2019-03-17T03:33:39.134Z,12.03
2019-03-17T03:34:39.229Z,12.04
2019-03-17T03:35:39.125Z,12.15
2019-03-17T03:36:39.115Z,12.12
2019-03-17T03:37:39.103Z,12.11
2019-03-17T03:38:39.096Z,12.11
2019-03-17T03:39:39.084Z,12.11
2019-03-17T03:40:39.077Z,12.08
2019-03-17T03:41:39.067Z,12.11
2019-03-17T03:42:39.067Z,12.12
2019-03-17T03:43:39.059Z,12.08
2019-03-17T03:44:39.047Z,12.05
2019-03-17T03:45:39.041Z,12.05
2019-03-17T03:46:39.036Z,12.01
2019-03-17T03:47:39.029Z,12.00
2019-03-17T03:48:39.021Z,11.94
2019-03-17T03:49:39.011Z,11.88
2019-03-17T03:50:39.002Z,11.93
2019-03-17T03:51:38.994Z,11.84
2019-03-17T03:52:38.987Z,11.81
2019-03-17T03:53:38.973Z,11.85
2019-03-17T03:54:38.969Z,11.77
2019-03-17T03:55:42.157Z,11.88
2019-03-17T03:56:38.953Z,11.81
2019-03-17T03:57:38.975Z,11.84
2019-03-17T03:58:38.936Z,11.88
2019-03-17T03:59:38.926Z,11.88
2019-03-17T04:00:38.914Z,11.93
2019-03-17T04:01:38.910Z,11.85
2019-03-17T04:02:38.902Z,11.87
2019-03-17T04:03:38.919Z,11.81
2019-03-17T04:04:38.895Z,11.79
2019-03-17T04:05:38.878Z,11.84
2019-03-17T04:06:38.870Z,11.81
2019-03-17T04:07:38.866Z,11.88
2019-03-17T04:08:38.859Z,11.79
2019-03-17T04:09:38.849Z,11.85
2019-03-17T04:10:38.839Z,11.82
2019-03-17T04:11:38.826Z,11.87
2019-03-17T04:12:38.818Z,11.87
2019-03-17T04:13:38.808Z,11.85
2019-03-17T04:14:38.870Z,11.88
2019-03-17T04:15:38.816Z,11.85
2019-03-17T04:16:38.788Z,11.93
2019-03-17T04:17:38.785Z,11.84
2019-03-17T04:18:38.776Z,11.87
2019-03-17T04:19:38.762Z,11.88
2019-03-17T04:20:38.754Z,11.78
2019-03-17T04:21:38.751Z,11.82
2019-03-17T04:22:38.747Z,11.87
2019-03-17T04:23:38.729Z,11.79
2019-03-17T04:24:38.727Z,11.77
2019-03-17T04:25:38.712Z,11.75
2019-03-17T04:26:38.701Z,11.77
2019-03-17T04:27:38.700Z,11.90
2019-03-17T04:28:38.691Z,11.84
2019-03-17T04:29:38.684Z,11.87
2019-03-17T04:30:38.677Z,11.82
2019-03-17T04:31:38.664Z,11.75
2019-03-17T04:32:38.655Z,11.79
2019-03-17T04:33:38.647Z,11.75
2019-03-17T04:34:38.640Z,11.66
2019-03-17T04:35:38.633Z,11.75
2019-03-17T04:36:40.364Z,11.72
2019-03-17T04:37:38.612Z,11.75
2019-03-17T04:38:38.603Z,11.72
2019-03-17T04:39:38.602Z,11.74
2019-03-17T04:40:38.592Z,11.78
2019-03-17T04:41:38.592Z,11.74
2019-03-17T04:42:38.580Z,11.72
2019-03-17T04:43:38.565Z,11.72
2019-03-17T04:44:38.558Z,11.74
2019-03-17T04:45:38.548Z,11.66
2019-03-17T04:46:38.541Z,11.72
2019-03-17T04:47:38.537Z,11.62
2019-03-17T04:48:38.555Z,11.62
2019-03-17T04:49:38.518Z,11.64
2019-03-17T04:50:38.509Z,11.53
2019-03-17T04:51:38.495Z,11.53
2019-03-17T04:52:38.487Z,11.49
2019-03-17T04:53:38.487Z,11.49
2019-03-17T04:54:38.477Z,11.46
2019-03-17T04:55:38.463Z,11.28
2019-03-17T04:56:38.455Z,11.35
2019-03-17T04:57:38.450Z,11.30
2019-03-17T04:58:38.443Z,11.21
2019-03-17T04:59:38.438Z,11.19
2019-03-17T05:00:38.428Z,11.16
2019-03-17T05:01:38.419Z,11.20
2019-03-17T05:02:38.413Z,11.09
2019-03-17T05:03:38.399Z,11.08
2019-03-17T05:04:38.390Z,11.09
2019-03-17T05:05:38.378Z,11.03
2019-03-17T05:06:38.371Z,10.99
2019-03-17T05:07:38.369Z,10.93
2019-03-17T05:08:38.358Z,10.88
2019-03-17T05:09:38.344Z,10.80
2019-03-17T05:10:38.337Z,10.72
2019-03-17T05:11:38.332Z,10.70
2019-03-17T05:12:38.324Z,10.60
2019-03-17T05:13:38.317Z,10.52
2019-03-17T05:14:38.309Z,10.54
2019-03-17T05:15:38.297Z,10.60
2019-03-17T05:16:38.286Z,10.49
2019-03-17T05:17:38.278Z,10.55
2019-03-17T05:18:38.270Z,10.49
2019-03-17T05:19:38.269Z,10.43
2019-03-17T05:20:38.257Z,10.44
2019-03-17T05:21:38.245Z,10.42
2019-03-17T05:22:38.237Z,10.42
2019-03-17T05:23:38.224Z,10.49
2019-03-17T05:24:38.214Z,10.34
2019-03-17T05:25:38.211Z,10.34
2019-03-17T05:26:38.202Z,10.29
2019-03-17T05:27:38.187Z,10.32
2019-03-17T05:28:38.179Z,10.35
2019-03-17T05:29:38.171Z,10.34
2019-03-17T05:30:38.163Z,10.35
2019-03-17T05:31:38.159Z,10.39
2019-03-17T05:32:38.150Z,10.32
2019-03-17T05:33:38.137Z,10.34
2019-03-17T05:34:38.129Z,10.32
2019-03-17T05:35:38.115Z,10.35
2019-03-17T05:36:38.106Z,10.34
2019-03-17T05:37:38.099Z,10.28
2019-03-17T05:38:38.092Z,10.28
2019-03-17T05:39:38.087Z,10.29
2019-03-17T05:40:38.078Z,10.26
2019-03-17T05:41:38.065Z,10.32
2019-03-17T05:42:40.434Z,10.32
2019-03-17T05:43:38.052Z,10.29
2019-03-17T05:44:38.044Z,10.35
2019-03-17T05:45:38.031Z,10.31
2019-03-17T05:46:38.026Z,10.29
2019-03-17T05:47:38.008Z,10.29
2019-03-17T05:48:38.000Z,10.31
2019-03-17T05:49:37.988Z,10.38
2019-03-17T05:50:37.981Z,10.34
2019-03-17T05:51:37.976Z,10.36
2019-03-17T05:52:37.967Z,10.36
2019-03-17T05:53:40.256Z,10.29
2019-03-17T05:54:37.954Z,10.35
2019-03-17T05:55:37.939Z,10.32
2019-03-17T05:56:37.929Z,10.35
2019-03-17T05:57:37.925Z,10.32
2019-03-17T05:58:37.915Z,10.31
2019-03-17T05:59:37.903Z,10.35
2019-03-17T06:00:37.894Z,10.38
2019-03-17T06:01:37.882Z,10.36
2019-03-17T06:02:37.873Z,10.39
2019-03-17T06:03:37.869Z,10.36
2019-03-17T06:04:37.932Z,10.20
2019-03-17T06:05:37.851Z,10.18
2019-03-17T06:06:37.843Z,10.22
2019-03-17T06:07:37.847Z,10.18
2019-03-17T06:08:37.818Z,10.20
2019-03-17T06:09:37.815Z,10.20
2019-03-17T06:10:37.804Z,10.20
2019-03-17T06:11:37.799Z,10.14
2019-03-17T06:12:37.788Z,10.16
2019-03-17T06:13:37.775Z,10.24
2019-03-17T06:14:37.768Z,10.16
2019-03-17T06:15:37.762Z,10.13
2019-03-17T06:16:37.752Z,10.17
2019-03-17T06:17:37.748Z,10.29
2019-03-17T06:18:37.732Z,10.18
2019-03-17T06:19:37.719Z,10.11
2019-03-17T06:20:37.710Z,10.18
2019-03-17T06:21:37.700Z,10.18
2019-03-17T06:22:37.690Z,10.24
2019-03-17T06:23:37.690Z,10.17
2019-03-17T06:24:37.678Z,10.22
2019-03-17T06:25:37.672Z,10.16
2019-03-17T06:26:37.663Z,10.14
2019-03-17T06:27:37.648Z,10.09
2019-03-17T06:28:37.640Z,10.13
2019-03-17T06:29:37.634Z,10.13
2019-03-17T06:30:37.635Z,10.11
2019-03-17T06:31:37.613Z,10.16
2019-03-17T06:32:37.602Z,10.13
2019-03-17T06:33:37.653Z,10.14
2019-03-17T06:34:37.587Z,10.14
2019-03-17T06:35:37.576Z,10.10
2019-03-17T06:36:37.568Z,10.09
2019-03-17T06:37:37.558Z,10.14
2019-03-17T06:38:37.548Z,10.09
2019-03-17T06:39:37.544Z,10.11
2019-03-17T06:40:37.533Z,10.10
2019-03-17T06:41:37.526Z,10.13
2019-03-17T06:42:37.514Z,10.14
2019-03-17T06:43:37.499Z,10.11
2019-03-17T06:44:37.491Z,10.10
2019-03-17T06:45:37.486Z,10.17
2019-03-17T06:46:37.477Z,10.17
2019-03-17T06:47:37.464Z,10.10
2019-03-17T06:48:37.456Z,10.09
2019-03-17T06:49:37.446Z,10.10
2019-03-17T06:50:37.438Z,10.07
2019-03-17T06:51:37.435Z,10.09
2019-03-17T06:52:37.424Z,10.10
2019-03-17T06:53:37.415Z,10.09
2019-03-17T06:54:37.407Z,10.09
2019-03-17T06:55:37.391Z,10.06
2019-03-17T06:56:37.384Z,10.11
2019-03-17T06:57:37.371Z,10.11
2019-03-17T06:58:37.361Z,10.10
2019-03-17T06:59:37.357Z,10.11
2019-03-17T07:00:37.348Z,10.06
2019-03-17T07:01:37.334Z,10.13
2019-03-17T07:02:37.326Z,10.09
2019-03-17T07:03:37.320Z,10.17
2019-03-17T07:04:37.312Z,10.13
2019-03-17T07:05:37.305Z,10.17
2019-03-17T07:06:37.295Z,10.16
2019-03-17T07:07:43.860Z,10.13
2019-03-17T07:08:37.273Z,10.17
2019-03-17T07:09:37.264Z,10.14
2019-03-17T07:10:37.255Z,10.16
2019-03-17T07:11:37.253Z,10.24
2019-03-17T07:12:37.242Z,10.17
2019-03-17T07:13:37.230Z,10.16
2019-03-17T07:14:37.220Z,10.14
2019-03-17T07:15:37.209Z,10.16
2019-03-17T07:16:37.197Z,10.17
2019-03-17T07:17:37.194Z,10.16
2019-03-17T07:18:37.186Z,10.16
2019-03-17T07:19:37.174Z,10.17
2019-03-17T07:20:37.167Z,10.26
2019-03-17T07:21:37.157Z,10.20
2019-03-17T07:22:37.148Z,10.24
2019-03-17T07:23:37.143Z,10.24
2019-03-17T07:24:37.134Z,10.20
2019-03-17T07:25:37.126Z,10.20
2019-03-17T07:26:37.116Z,10.28
2019-03-17T07:27:37.104Z,10.35
2019-03-17T07:28:37.093Z,10.26
2019-03-17T07:29:37.081Z,10.26
2019-03-17T07:30:37.073Z,10.38
2019-03-17T07:31:37.070Z,10.36
2019-03-17T07:32:37.062Z,10.32
2019-03-17T07:33:37.057Z,10.36
2019-03-17T07:34:37.041Z,10.34
2019-03-17T07:35:37.036Z,10.31
2019-03-17T07:36:37.024Z,10.31
2019-03-17T07:37:37.019Z,10.29
2019-03-17T07:38:37.014Z,10.29
2019-03-17T07:39:36.998Z,10.36
2019-03-17T07:40:36.988Z,10.42
2019-03-17T07:41:36.979Z,10.31
2019-03-17T07:42:36.970Z,10.38
2019-03-17T07:43:36.967Z,10.35
2019-03-17T07:44:36.955Z,10.36
2019-03-17T07:45:36.950Z,10.26
2019-03-17T07:46:36.944Z,10.26
2019-03-17T07:47:36.930Z,10.34
2019-03-17T07:48:36.921Z,10.24
2019-03-17T07:49:36.917Z,10.24
2019-03-17T07:50:36.907Z,10.25
2019-03-17T07:51:36.895Z,10.25
2019-03-17T07:52:36.888Z,10.29
2019-03-17T07:53:36.877Z,10.09
2019-03-17T07:54:36.867Z,9.92
2019-03-17T07:55:36.861Z,9.81
2019-03-17T07:56:36.857Z,9.75
2019-03-17T07:57:36.844Z,9.70
2019-03-17T07:58:36.837Z,9.58
2019-03-17T07:59:36.821Z,9.59
2019-03-17T08:00:36.813Z,9.48
2019-03-17T08:01:36.808Z,9.49
2019-03-17T08:02:36.798Z,9.55
2019-03-17T08:03:36.795Z,9.48
2019-03-17T08:04:42.346Z,9.48
2019-03-17T08:05:36.777Z,9.44
2019-03-17T08:06:36.763Z,9.42
2019-03-17T08:07:36.759Z,9.44
2019-03-17T08:08:36.781Z,9.45
2019-03-17T08:09:36.738Z,9.49
2019-03-17T08:10:36.729Z,9.49
2019-03-17T08:11:36.716Z,9.53
2019-03-17T08:12:36.705Z,9.53
2019-03-17T08:13:36.696Z,9.63
2019-03-17T08:14:36.689Z,9.70
2019-03-17T08:15:36.685Z,9.70
2019-03-17T08:16:36.676Z,9.71
2019-03-17T08:17:36.669Z,9.67
2019-03-17T08:18:36.660Z,9.71
2019-03-17T08:19:36.650Z,9.75
2019-03-17T08:20:36.638Z,9.75
2019-03-17T08:21:36.633Z,9.93
2019-03-17T08:22:36.625Z,9.95
2019-03-17T08:23:36.611Z,9.86
2019-03-17T08:24:36.602Z,9.91
2019-03-17T08:25:36.601Z,9.99
2019-03-17T08:26:36.583Z,9.98
2019-03-17T08:27:36.655Z,10.01
2019-03-17T08:28:36.587Z,9.99
2019-03-17T08:29:36.562Z,10.07
2019-03-17T08:30:36.613Z,10.10
2019-03-17T08:31:36.540Z,10.16
2019-03-17T08:32:36.536Z,10.24
2019-03-17T08:33:36.526Z,10.18
2019-03-17T08:34:36.518Z,10.31
2019-03-17T08:35:36.514Z,10.20
2019-03-17T08:36:36.505Z,10.31
2019-03-17T08:37:36.492Z,10.26
2019-03-17T08:38:36.485Z,10.32
2019-03-17T08:39:36.482Z,10.32
2019-03-17T08:40:36.473Z,10.42
2019-03-17T08:41:37.750Z,10.52
2019-03-17T08:42:36.455Z,10.55
2019-03-17T08:43:36.443Z,10.49
2019-03-17T08:44:36.434Z,10.65
2019-03-17T08:45:36.427Z,10.80
2019-03-17T08:46:36.419Z,10.76
2019-03-17T08:47:36.416Z,10.90
2019-03-17T08:48:36.407Z,11.05
2019-03-17T08:49:36.398Z,11.11
2019-03-17T08:50:36.390Z,11.21
2019-03-17T08:51:36.464Z,11.27
2019-03-17T08:52:36.369Z,11.42
2019-03-17T08:53:36.369Z,11.45
2019-03-17T08:54:36.368Z,11.59
2019-03-17T08:55:36.346Z,11.57
2019-03-17T08:56:36.339Z,11.66
2019-03-17T08:57:36.335Z,11.66
2019-03-17T08:58:36.327Z,11.72
2019-03-17T08:59:36.325Z,11.70
2019-03-17T09:00:36.316Z,11.75
2019-03-17T09:01:36.315Z,11.53
2019-03-17T09:02:36.302Z,11.42
2019-03-17T09:03:36.293Z,11.39
2019-03-17T09:04:36.284Z,11.33
2019-03-17T09:05:36.279Z,11.13
2019-03-17T09:06:36.265Z,11.06
2019-03-17T09:07:36.281Z,11.03
2019-03-17T09:08:36.260Z,11.06
2019-03-17T09:09:36.244Z,11.11
2019-03-17T09:10:36.236Z,11.20
2019-03-17T09:11:36.235Z,11.09
2019-03-17T09:12:36.230Z,11.12
2019-03-17T09:13:36.228Z,11.13
2019-03-17T09:14:36.222Z,11.12
2019-03-17T09:15:36.212Z,11.11
2019-03-17T09:16:36.204Z,11.19
2019-03-17T09:17:36.192Z,11.30
2019-03-17T09:18:36.185Z,11.46
2019-03-17T09:19:36.183Z,11.53
2019-03-17T09:20:36.175Z,11.64
2019-03-17T09:21:36.165Z,11.63
2019-03-17T09:22:36.240Z,11.67
2019-03-17T09:23:36.147Z,11.82
2019-03-17T09:24:36.142Z,11.93
2019-03-17T09:25:36.140Z,11.78
2019-03-17T09:26:36.132Z,11.74
2019-03-17T09:27:36.131Z,11.69
2019-03-17T09:28:36.113Z,11.84
2019-03-17T09:29:36.117Z,11.82
2019-03-17T09:30:36.106Z,11.82
2019-03-17T09:31:36.101Z,11.88
2019-03-17T09:32:36.095Z,11.94
2019-03-17T09:33:36.091Z,11.79
2019-03-17T09:34:36.083Z,12.00
2019-03-17T09:35:36.072Z,12.07
2019-03-17T09:36:36.068Z,12.15
2019-03-17T09:37:36.056Z,12.08
2019-03-17T09:38:46.613Z,12.08
2019-03-17T09:39:36.086Z,12.13
2019-03-17T09:40:36.042Z,12.11
2019-03-17T09:41:36.031Z,12.08
2019-03-17T09:42:36.025Z,12.08
2019-03-17T09:43:36.024Z,12.13
2019-03-17T09:44:36.017Z,12.23
2019-03-17T09:45:36.013Z,12.23
2019-03-17T09:46:36.007Z,12.00
2019-03-17T09:47:35.996Z,12.26
2019-03-17T09:48:35.989Z,12.37
2019-03-17T09:49:35.980Z,12.46
2019-03-17T09:50:35.976Z,12.44
2019-03-17T09:51:35.974Z,12.55
2019-03-17T09:52:35.967Z,12.55
2019-03-17T09:53:35.973Z,12.61
2019-03-17T09:54:35.958Z,12.62
2019-03-17T09:55:35.948Z,12.71
2019-03-17T09:56:35.941Z,12.67
2019-03-17T09:57:35.941Z,12.61
2019-03-17T09:58:35.935Z,12.52
2019-03-17T09:59:35.925Z,12.62
2019-03-17T10:00:35.925Z,12.58
2019-03-17T10:01:35.911Z,12.43
2019-03-17T10:02:35.904Z,12.46
2019-03-17T10:03:35.905Z,12.43
2019-03-17T10:04:35.897Z,12.40
2019-03-17T10:05:35.892Z,12.34
2019-03-17T10:06:35.887Z,12.48
2019-03-17T10:07:35.878Z,12.48
2019-03-17T10:08:35.870Z,12.48
2019-03-17T10:09:35.867Z,12.38
2019-03-17T10:10:35.864Z,12.37
2019-03-17T10:11:35.864Z,12.41
2019-03-17T10:12:35.855Z,12.44
2019-03-17T10:13:35.845Z,12.43
2019-03-17T10:14:35.839Z,12.43
2019-03-17T10:15:35.838Z,12.43
2019-03-17T10:16:35.831Z,12.46
2019-03-17T10:17:35.841Z,12.52
2019-03-17T10:18:35.818Z,12.52
2019-03-17T10:19:35.809Z,12.40
2019-03-17T10:20:35.800Z,12.23
2019-03-17T10:21:35.797Z,12.26
2019-03-17T10:22:35.789Z,12.29
2019-03-17T10:23:35.789Z,12.30
2019-03-17T10:24:35.782Z,12.46
2019-03-17T10:25:35.778Z,12.59
2019-03-17T10:26:35.774Z,12.61
2019-03-17T10:27:35.763Z,12.71
2019-03-17T10:28:35.757Z,13.04
2019-03-17T10:29:35.755Z,12.99
2019-03-17T10:30:35.749Z,13.10
2019-03-17T10:31:35.739Z,13.01
2019-03-17T10:32:35.733Z,13.16
2019-03-17T10:33:35.725Z,14.26
2019-03-17T10:34:35.721Z,15.28
2019-03-17T10:35:35.719Z,15.67
2019-03-17T10:36:35.715Z,15.84
2019-03-17T10:37:35.709Z,15.44
2019-03-17T10:38:35.706Z,15.03
2019-03-17T10:39:35.697Z,14.60
2019-03-17T10:40:35.694Z,14.05
2019-03-17T10:41:35.693Z,13.84
2019-03-17T10:42:35.693Z,13.50
2019-03-17T10:43:35.691Z,13.04
2019-03-17T10:44:35.685Z,12.58
2019-03-17T10:45:35.676Z,12.38
2019-03-17T10:46:35.675Z,12.25
2019-03-17T10:47:35.673Z,11.98
2019-03-17T10:48:35.668Z,11.94
2019-03-17T10:49:35.662Z,11.79
2019-03-17T10:50:48.789Z,12.61
2019-03-17T10:51:35.650Z,12.92
2019-03-17T10:52:35.642Z,13.12
2019-03-17T10:53:35.637Z,13.50
2019-03-17T10:54:35.636Z,14.06
2019-03-17T10:55:35.635Z,15.01
2019-03-17T10:56:35.630Z,15.78
2019-03-17T10:57:35.628Z,16.72
2019-03-17T10:58:35.625Z,17.42
2019-03-17T10:59:35.617Z,17.54
2019-03-17T11:00:35.612Z,17.99
2019-03-17T11:01:35.615Z,18.96
2019-03-17T11:02:35.612Z,19.49
2019-03-17T11:03:35.606Z,19.58
2019-03-17T11:04:35.603Z,19.92
2019-03-17T11:05:35.602Z,20.13
2019-03-17T11:06:35.599Z,19.79
2019-03-17T11:07:35.608Z,19.35
2019-03-17T11:08:35.603Z,18.96
2019-03-17T11:09:35.604Z,19.30
2019-03-17T11:10:35.605Z,19.40
2019-03-17T11:11:35.601Z,19.46
2019-03-17T11:12:35.600Z,20.44
2019-03-17T11:13:35.603Z,20.94
2019-03-17T11:14:35.606Z,20.48
2019-03-17T11:15:35.610Z,19.86
2019-03-17T11:16:35.612Z,19.52
2019-03-17T11:17:35.609Z,18.51
2019-03-17T11:18:35.611Z,17.95
2019-03-17T11:19:35.618Z,17.62
2019-03-17T11:20:35.617Z,17.33
2019-03-17T11:21:35.617Z,16.92
2019-03-17T11:22:35.623Z,16.70
2019-03-17T11:23:35.617Z,16.13
2019-03-17T11:24:35.616Z,15.84
2019-03-17T11:25:35.620Z,15.59
2019-03-17T11:26:35.617Z,15.33
2019-03-17T11:27:35.624Z,14.86
2019-03-17T11:28:35.622Z,14.80
2019-03-17T11:29:35.624Z,14.66
2019-03-17T11:30:35.625Z,14.30
2019-03-17T11:31:35.621Z,14.09
2019-03-17T11:32:35.619Z,14.20
2019-03-17T11:33:35.624Z,14.09
2019-03-17T11:34:35.620Z,14.06
2019-03-17T11:35:35.618Z,13.62
2019-03-17T11:36:35.615Z,14.09
2019-03-17T11:37:35.608Z,14.34
2019-03-17T11:38:35.609Z,14.52
2019-03-17T11:39:38.026Z,14.57
2019-03-17T11:40:35.608Z,14.60
2019-03-17T11:41:35.603Z,14.46
2019-03-17T11:42:35.602Z,14.53
2019-03-17T11:43:35.594Z,14.67
2019-03-17T11:44:35.592Z,14.71
2019-03-17T11:45:35.592Z,14.54
2019-03-17T11:46:35.589Z,14.69
2019-03-17T11:47:35.598Z,14.63
2019-03-17T11:48:35.586Z,14.90
2019-03-17T11:49:35.580Z,15.04
2019-03-17T11:50:35.577Z,15.16
2019-03-17T11:51:35.576Z,15.20
2019-03-17T11:52:35.574Z,15.30
2019-03-17T11:53:35.569Z,15.31
2019-03-17T11:54:35.565Z,15.31
2019-03-17T11:55:35.567Z,15.31
2019-03-17T11:56:35.553Z,15.37
2019-03-17T11:57:35.552Z,15.19
2019-03-17T11:58:35.550Z,15.30
2019-03-17T11:59:35.550Z,15.38
2019-03-17T12:00:35.545Z,15.28
2019-03-17T12:01:35.541Z,15.33
2019-03-17T12:02:35.538Z,15.01
2019-03-17T12:03:35.529Z,15.07
2019-03-17T12:04:35.526Z,15.22
2019-03-17T12:05:35.526Z,14.95
2019-03-17T12:06:35.523Z,14.90
2019-03-17T12:07:35.512Z,14.86
2019-03-17T12:08:35.508Z,14.78
2019-03-17T12:09:35.508Z,14.67
2019-03-17T12:10:35.506Z,14.61
2019-03-17T12:11:35.504Z,14.90
2019-03-17T12:12:35.499Z,14.93
2019-03-17T12:13:35.496Z,14.97
2019-03-17T12:14:35.491Z,15.01
2019-03-17T12:15:35.485Z,14.91
2019-03-17T12:16:35.477Z,15.07
2019-03-17T12:17:35.471Z,14.95
2019-03-17T12:18:35.469Z,14.90
2019-03-17T12:19:35.468Z,15.03
2019-03-17T12:20:35.465Z,14.86
2019-03-17T12:21:35.453Z,14.66
2019-03-17T12:22:35.451Z,14.46
2019-03-17T12:23:35.451Z,14.49
2019-03-17T12:24:35.444Z,14.48
2019-03-17T12:25:35.442Z,14.31
2019-03-17T12:26:35.439Z,13.99
2019-03-17T12:27:35.430Z,14.05
2019-03-17T12:28:35.426Z,14.26
2019-03-17T12:29:35.421Z,14.38
2019-03-17T12:30:35.416Z,14.41
2019-03-17T12:31:35.418Z,14.39
2019-03-17T12:32:35.412Z,14.21
2019-03-17T12:33:35.405Z,14.16
2019-03-17T12:34:35.405Z,14.20
2019-03-17T12:35:35.393Z,14.17
2019-03-17T12:36:35.387Z,14.17
2019-03-17T12:37:35.388Z,14.29
2019-03-17T12:38:35.383Z,14.02
2019-03-17T12:39:35.374Z,14.05
2019-03-17T12:40:35.367Z,13.68
2019-03-17T12:41:38.124Z,13.48
2019-03-17T12:42:35.363Z,13.54
2019-03-17T12:43:35.366Z,13.32
2019-03-17T12:44:35.358Z,13.17
2019-03-17T12:45:35.351Z,13.17
2019-03-17T12:46:35.348Z,13.03
2019-03-17T12:47:37.373Z,12.79
2019-03-17T12:48:35.337Z,12.67
2019-03-17T12:49:35.327Z,12.59
2019-03-17T12:50:35.327Z,12.62
2019-03-17T12:51:35.324Z,12.21
2019-03-17T12:52:35.317Z,12.15
2019-03-17T12:53:35.308Z,12.21